createdAt,value
2023-04-15T00:02:15.416Z,9.71
2023-04-15T00:04:47.490Z,9.71
2023-04-15T00:07:16.666Z,9.71
2023-04-15T00:09:45.431Z,9.73
2023-04-15T00:12:14.295Z,9.73
2023-04-15T00:14:43.823Z,9.73
2023-04-15T00:17:12.754Z,9.72
2023-04-15T00:19:41.556Z,9.72
2023-04-15T00:22:10.450Z,9.76
2023-04-15T00:24:39.417Z,9.79
2023-04-15T00:27:08.040Z,9.82
2023-04-15T00:29:36.826Z,9.83
2023-04-15T00:32:05.624Z,9.84
2023-04-15T00:34:35.010Z,9.87
2023-04-15T00:37:03.841Z,9.88
2023-04-15T00:39:32.604Z,9.92
2023-04-15T00:42:01.678Z,9.97
2023-04-15T00:44:30.631Z,10.02
2023-04-15T00:47:00.965Z,10.07
2023-04-15T00:49:30.405Z,10.12
2023-04-15T00:51:59.041Z,10.15
2023-04-15T00:54:27.732Z,10.16
2023-04-15T00:56:57.298Z,10.18
2023-04-15T00:59:26.018Z,10.18
2023-04-15T01:01:54.858Z,10.19
2023-04-15T01:04:24.457Z,10.19
2023-04-15T01:06:53.455Z,10.16
2023-04-15T01:09:22.527Z,10.15
2023-04-15T01:11:53.101Z,10.17
2023-04-15T01:14:22.174Z,10.17
2023-04-15T01:16:51.074Z,10.16
2023-04-15T01:19:20.690Z,10.16
2023-04-15T01:21:49.718Z,10.15
2023-04-15T01:24:19.312Z,10.15
2023-04-15T01:26:50.454Z,10.12
2023-04-15T01:29:19.728Z,10.12
2023-04-15T01:31:53.230Z,10.13
2023-04-15T01:34:22.630Z,10.14
2023-04-15T01:36:55.579Z,10.13
2023-04-15T01:39:24.403Z,10.13
2023-04-15T01:41:52.853Z,10.13
2023-04-15T01:44:22.313Z,10.14
2023-04-15T01:46:50.972Z,10.16
2023-04-15T01:49:19.842Z,10.16
2023-04-15T01:51:48.824Z,10.16
2023-04-15T01:54:17.600Z,10.16
2023-04-15T01:56:46.284Z,10.17
2023-04-15T01:59:14.933Z,10.18
2023-04-15T02:01:44.142Z,10.18
2023-04-15T02:04:17.696Z,10.17
2023-04-15T02:06:47.160Z,10.16
2023-04-15T02:09:15.942Z,10.17
2023-04-15T02:11:48.127Z,10.17
2023-04-15T02:14:16.547Z,10.17
2023-04-15T02:16:45.021Z,10.17
2023-04-15T02:19:14.409Z,10.16
2023-04-15T02:21:42.790Z,10.17
2023-04-15T02:24:12.596Z,10.19
2023-04-15T02:26:43.922Z,10.23
2023-04-15T02:29:12.500Z,10.16
2023-04-15T02:31:42.623Z,10.12
2023-04-15T02:34:12.025Z,10.16
2023-04-15T02:36:41.264Z,10.13
2023-04-15T02:39:10.073Z,9.99
2023-04-15T02:41:39.117Z,9.86
2023-04-15T02:44:11.450Z,9.75
2023-04-15T02:46:41.917Z,9.68
2023-04-15T02:49:11.265Z,9.60
2023-04-15T02:51:39.991Z,9.52
2023-04-15T02:54:09.349Z,9.46
2023-04-15T02:56:38.236Z,9.46
2023-04-15T02:59:06.948Z,9.46
2023-04-15T03:01:35.931Z,9.47
2023-04-15T03:04:05.129Z,9.49
2023-04-15T03:06:33.631Z,9.52
2023-04-15T03:09:04.229Z,9.55
2023-04-15T03:11:40.852Z,9.59
2023-04-15T03:14:11.919Z,9.66
2023-04-15T03:16:43.263Z,9.73
2023-04-15T03:19:11.903Z,9.75
2023-04-15T03:21:41.020Z,9.73
2023-04-15T03:24:10.412Z,9.70
2023-04-15T03:26:38.962Z,9.65
2023-04-15T03:29:13.445Z,9.59
2023-04-15T03:31:42.652Z,9.55
2023-04-15T03:34:11.236Z,9.49
2023-04-15T03:36:40.605Z,9.44
2023-04-15T03:39:09.170Z,9.44
2023-04-15T03:41:37.600Z,9.49
2023-04-15T03:44:06.815Z,9.50
2023-04-15T03:46:35.297Z,9.47
2023-04-15T03:49:04.275Z,9.41
2023-04-15T03:51:33.569Z,9.38
2023-04-15T03:54:02.578Z,9.35
2023-04-15T03:56:31.297Z,9.32
2023-04-15T03:59:01.202Z,9.29
2023-04-15T04:01:30.147Z,9.27
2023-04-15T04:03:58.766Z,9.26
2023-04-15T04:06:28.042Z,9.23
2023-04-15T04:08:57.131Z,9.20
2023-04-15T04:11:25.920Z,9.20
2023-04-15T04:13:54.946Z,9.20
2023-04-15T04:16:23.584Z,9.21
2023-04-15T04:18:52.009Z,9.18
2023-04-15T04:21:22.020Z,9.16
2023-04-15T04:23:51.014Z,9.14
2023-04-15T04:26:20.072Z,9.13
2023-04-15T04:28:49.004Z,9.12
2023-04-15T04:31:17.519Z,9.12
2023-04-15T04:33:46.754Z,9.11
2023-04-15T04:36:16.149Z,9.09
2023-04-15T04:38:44.625Z,9.07
2023-04-15T04:41:13.504Z,9.06
2023-04-15T04:43:43.061Z,9.04
2023-04-15T04:46:12.345Z,9.02
2023-04-15T04:48:41.297Z,9.04
2023-04-15T04:51:10.343Z,9.03
2023-04-15T04:53:38.839Z,8.98
2023-04-15T04:56:07.426Z,8.91
2023-04-15T04:58:36.718Z,8.84
2023-04-15T05:01:05.269Z,8.79
2023-04-15T05:03:33.948Z,8.75
2023-04-15T05:06:06.513Z,8.72
2023-04-15T05:08:35.114Z,8.70
2023-04-15T05:11:04.321Z,8.69
2023-04-15T05:13:33.272Z,8.67
2023-04-15T05:16:02.305Z,8.70
2023-04-15T05:18:31.308Z,8.76
2023-04-15T05:21:00.752Z,8.82
2023-04-15T05:23:29.651Z,8.95
2023-04-15T05:25:58.713Z,9.05
2023-04-15T05:28:27.751Z,9.14
2023-04-15T05:30:56.655Z,9.23
2023-04-15T05:33:25.894Z,9.26
2023-04-15T05:35:54.747Z,9.27
2023-04-15T05:38:23.655Z,9.29
2023-04-15T05:40:52.516Z,9.36
2023-04-15T05:43:21.393Z,9.59
2023-04-15T05:45:49.817Z,9.85
2023-04-15T05:48:18.815Z,9.95
2023-04-15T05:50:48.039Z,9.96
2023-04-15T05:53:16.742Z,9.90
2023-04-15T05:55:45.726Z,9.79
2023-04-15T05:58:14.534Z,9.71
2023-04-15T06:00:44.203Z,9.63
2023-04-15T06:03:13.617Z,9.62
2023-04-15T06:05:43.150Z,9.66
2023-04-15T06:08:11.599Z,9.66
2023-04-15T06:10:40.533Z,9.68
2023-04-15T06:13:09.744Z,9.72
2023-04-15T06:15:38.356Z,9.76
2023-04-15T06:18:06.914Z,9.89
2023-04-15T06:20:37.101Z,10.31
2023-04-15T06:23:05.402Z,11.54
2023-04-15T06:25:34.191Z,12.60
2023-04-15T06:28:03.489Z,13.25
2023-04-15T06:30:32.026Z,13.35
2023-04-15T06:33:00.720Z,13.21
2023-04-15T06:35:29.459Z,13.02
2023-04-15T06:37:58.144Z,12.79
2023-04-15T06:40:27.204Z,12.52
2023-04-15T06:42:56.240Z,12.29
2023-04-15T06:45:24.791Z,12.05
2023-04-15T06:47:53.467Z,11.88
2023-04-15T06:50:22.500Z,11.92
2023-04-15T06:52:51.186Z,12.63
2023-04-15T06:55:20.051Z,12.96
2023-04-15T06:57:49.270Z,12.84
2023-04-15T07:00:18.125Z,12.57
2023-04-15T07:02:47.084Z,12.45
2023-04-15T07:05:16.232Z,12.48
2023-04-15T07:07:45.690Z,12.46
2023-04-15T07:10:16.287Z,12.46
2023-04-15T07:12:45.699Z,12.43
2023-04-15T07:15:14.146Z,12.32
2023-04-15T07:17:43.641Z,12.24
2023-04-15T07:20:13.329Z,12.23
2023-04-15T07:22:41.833Z,12.32
2023-04-15T07:25:10.418Z,12.52
2023-04-15T07:27:39.305Z,12.85
2023-04-15T07:30:08.313Z,13.14
2023-04-15T07:32:37.316Z,13.21
2023-04-15T07:35:06.486Z,13.24
2023-04-15T07:37:37.596Z,13.35
2023-04-15T07:40:07.856Z,13.37
2023-04-15T07:42:38.061Z,13.26
2023-04-15T07:45:09.983Z,13.05
2023-04-15T07:47:42.368Z,13.01
2023-04-15T07:50:15.108Z,12.99
2023-04-15T07:52:49.907Z,13.04
2023-04-15T07:55:28.332Z,13.06
2023-04-15T07:57:57.601Z,12.98
2023-04-15T08:00:27.187Z,12.85
2023-04-15T08:02:58.036Z,12.71
2023-04-15T08:05:26.713Z,12.58
2023-04-15T08:07:55.330Z,12.58
2023-04-15T08:10:24.096Z,12.71
2023-04-15T08:12:54.697Z,12.95
2023-04-15T08:15:23.730Z,13.34
2023-04-15T08:17:52.570Z,13.50
2023-04-15T08:20:21.175Z,13.45
2023-04-15T08:22:52.273Z,13.42
2023-04-15T08:25:21.012Z,13.32
2023-04-15T08:27:49.556Z,13.22
2023-04-15T08:30:18.419Z,13.07
2023-04-15T08:32:47.637Z,12.89
2023-04-15T08:35:16.813Z,12.76
2023-04-15T08:37:46.349Z,12.63
2023-04-15T08:40:15.064Z,12.57
2023-04-15T08:42:49.305Z,12.61
2023-04-15T08:45:18.838Z,12.75
2023-04-15T08:47:50.105Z,12.99
2023-04-15T08:50:20.658Z,13.27
2023-04-15T08:52:49.871Z,13.56
2023-04-15T08:55:18.475Z,13.75
2023-04-15T08:57:47.528Z,14.02
2023-04-15T09:00:16.678Z,14.39
2023-04-15T09:02:45.526Z,14.70
2023-04-15T09:05:14.567Z,14.96
2023-04-15T09:07:44.944Z,15.20
2023-04-15T09:10:13.479Z,15.17
2023-04-15T09:12:42.981Z,14.92
2023-04-15T09:15:16.698Z,14.77
2023-04-15T09:17:46.715Z,14.70
2023-04-15T09:20:18.909Z,14.67
2023-04-15T09:22:50.247Z,15.04
2023-04-15T09:25:22.979Z,15.34
2023-04-15T09:27:54.127Z,15.22
2023-04-15T09:30:23.082Z,15.13
2023-04-15T09:33:00.148Z,15.22
2023-04-15T09:35:29.290Z,15.30
2023-04-15T09:38:06.917Z,15.27
2023-04-15T09:40:41.434Z,15.17
2023-04-15T09:43:13.342Z,15.21
2023-04-15T09:45:50.204Z,15.34
2023-04-15T09:48:22.043Z,15.45
2023-04-15T09:50:51.436Z,15.55
2023-04-15T09:53:21.911Z,15.79
2023-04-15T09:55:59.194Z,15.90
2023-04-15T09:58:30.008Z,15.70
2023-04-15T10:01:01.061Z,15.53
2023-04-15T10:03:32.120Z,15.45
2023-04-15T10:06:02.709Z,15.47
2023-04-15T10:08:35.075Z,15.60
2023-04-15T10:11:05.468Z,15.46
2023-04-15T10:13:36.658Z,15.33
2023-04-15T10:16:14.945Z,15.24
2023-04-15T10:18:46.489Z,15.36
2023-04-15T10:21:18.993Z,15.54
2023-04-15T10:23:48.179Z,15.74
2023-04-15T10:26:18.282Z,15.94
2023-04-15T10:28:48.751Z,16.01
2023-04-15T10:31:18.727Z,16.01
2023-04-15T10:33:48.990Z,15.78
2023-04-15T10:36:20.559Z,15.61
2023-04-15T10:38:49.305Z,15.84
2023-04-15T10:41:30.051Z,15.90
2023-04-15T10:44:05.026Z,15.73
2023-04-15T10:46:43.944Z,15.68
2023-04-15T10:49:17.922Z,15.52
2023-04-15T10:51:54.970Z,15.35
2023-04-15T10:54:27.219Z,15.28
2023-04-15T10:57:03.204Z,15.24
2023-04-15T10:59:33.302Z,15.29
2023-04-15T11:02:04.467Z,15.21
2023-04-15T11:04:52.393Z,15.11
2023-04-15T11:07:54.807Z,15.14
2023-04-15T11:10:26.287Z,15.22
2023-04-15T11:12:58.995Z,15.25
2023-04-15T11:15:42.046Z,15.35
2023-04-15T11:18:13.987Z,15.31
2023-04-15T11:20:48.046Z,15.25
2023-04-15T11:23:38.786Z,15.18
2023-04-15T11:26:12.433Z,15.19
2023-04-15T11:28:43.029Z,15.14
2023-04-15T11:31:15.281Z,15.13
2023-04-15T11:34:03.497Z,15.16
2023-04-15T11:36:32.441Z,15.01
2023-04-15T11:39:01.113Z,14.97
2023-04-15T11:41:30.763Z,14.92
2023-04-15T11:43:59.604Z,14.86
2023-04-15T11:46:34.856Z,14.75
2023-04-15T11:49:05.104Z,14.69
2023-04-15T11:51:50.951Z,14.71
2023-04-15T11:54:22.794Z,14.73
2023-04-15T11:56:53.174Z,14.64
2023-04-15T11:59:21.641Z,14.63
2023-04-15T12:01:52.693Z,14.62
2023-04-15T12:04:25.376Z,14.59
2023-04-15T12:06:54.749Z,14.65
2023-04-15T12:09:23.194Z,14.70
2023-04-15T12:11:56.130Z,14.72
2023-04-15T12:14:32.410Z,14.79
2023-04-15T12:17:05.541Z,14.89
2023-04-15T12:19:42.191Z,14.96
2023-04-15T12:22:16.095Z,15.19
2023-04-15T12:24:48.162Z,15.46
2023-04-15T12:27:17.954Z,15.57
2023-04-15T12:29:46.815Z,15.58
2023-04-15T12:32:17.279Z,15.62
2023-04-15T12:34:52.020Z,15.62
2023-04-15T12:37:20.891Z,15.58
2023-04-15T12:39:50.691Z,15.55
2023-04-15T12:42:20.352Z,15.54
2023-04-15T12:44:49.170Z,15.56
2023-04-15T12:47:17.826Z,15.62
2023-04-15T12:49:47.316Z,15.78
2023-04-15T12:52:16.860Z,15.84
2023-04-15T12:54:45.371Z,15.82
2023-04-15T12:57:14.408Z,15.82
2023-04-15T12:59:43.506Z,15.77
2023-04-15T13:02:12.055Z,15.53
2023-04-15T13:04:41.400Z,15.34
2023-04-15T13:07:10.916Z,15.20
2023-04-15T13:09:39.918Z,15.07
2023-04-15T13:12:08.781Z,15.04
2023-04-15T13:14:38.187Z,15.01
2023-04-15T13:17:10.598Z,14.99
2023-04-15T13:19:39.740Z,15.03
2023-04-15T13:22:09.107Z,15.04
2023-04-15T13:24:38.038Z,14.98
2023-04-15T13:27:08.637Z,14.93
2023-04-15T13:29:37.050Z,14.88
2023-04-15T13:32:06.354Z,14.81
2023-04-15T13:34:35.716Z,14.77
2023-04-15T13:37:10.734Z,14.76
2023-04-15T13:39:39.382Z,14.76
2023-04-15T13:42:07.929Z,14.72
2023-04-15T13:44:36.863Z,14.78
2023-04-15T13:47:06.355Z,14.87
2023-04-15T13:49:35.031Z,14.85
2023-04-15T13:52:03.765Z,14.76
2023-04-15T13:54:37.628Z,14.78
2023-04-15T13:57:07.362Z,14.98
2023-04-15T13:59:36.626Z,15.11
2023-04-15T14:02:05.328Z,15.19
2023-04-15T14:04:34.635Z,15.19
2023-04-15T14:07:05.283Z,15.26
2023-04-15T14:09:36.135Z,15.32
2023-04-15T14:12:06.008Z,15.40
2023-04-15T14:14:35.028Z,15.45
2023-04-15T14:17:05.154Z,15.44
2023-04-15T14:19:35.359Z,15.45
2023-04-15T14:22:03.991Z,15.39
2023-04-15T14:24:32.946Z,15.21
2023-04-15T14:27:02.530Z,15.11
2023-04-15T14:29:31.453Z,15.01
2023-04-15T14:32:11.592Z,14.89
2023-04-15T14:34:41.682Z,14.77
2023-04-15T14:37:10.403Z,14.74
2023-04-15T14:39:38.959Z,14.61
2023-04-15T14:42:07.815Z,14.40
2023-04-15T14:44:36.674Z,14.20
2023-04-15T14:47:06.439Z,14.05
2023-04-15T14:49:35.312Z,14.03
2023-04-15T14:52:04.450Z,14.08
2023-04-15T14:54:33.432Z,14.14
2023-04-15T14:57:02.435Z,14.15
2023-04-15T14:59:31.378Z,14.15
2023-04-15T15:02:00.361Z,14.16
2023-04-15T15:04:29.972Z,14.23
2023-04-15T15:06:58.848Z,14.30
2023-04-15T15:09:27.631Z,14.31
2023-04-15T15:11:57.646Z,14.39
2023-04-15T15:14:26.985Z,14.41
2023-04-15T15:16:55.598Z,14.33
2023-04-15T15:19:25.214Z,14.21
2023-04-15T15:21:54.064Z,14.17
2023-04-15T15:24:22.537Z,14.16
2023-04-15T15:26:51.740Z,14.06
2023-04-15T15:29:20.602Z,14.03
2023-04-15T15:31:49.524Z,14.04
2023-04-15T15:34:18.778Z,13.98
2023-04-15T15:36:47.600Z,13.91
2023-04-15T15:39:16.453Z,13.91
2023-04-15T15:41:45.389Z,13.96
2023-04-15T15:44:13.979Z,14.00
2023-04-15T15:46:42.527Z,14.03
2023-04-15T15:49:11.886Z,14.02
2023-04-15T15:51:40.750Z,14.01
2023-04-15T15:54:09.195Z,13.98
2023-04-15T15:56:39.758Z,13.96
2023-04-15T15:59:08.451Z,13.96
2023-04-15T16:01:36.946Z,13.95
2023-04-15T16:04:06.150Z,13.97
2023-04-15T16:06:35.561Z,14.00
2023-04-15T16:09:04.531Z,14.00
2023-04-15T16:11:33.554Z,13.96
2023-04-15T16:14:02.485Z,13.91
2023-04-15T16:16:31.392Z,13.86
2023-04-15T16:19:00.506Z,13.83
2023-04-15T16:21:29.711Z,13.82
2023-04-15T16:23:58.406Z,13.75
2023-04-15T16:26:27.235Z,13.67
2023-04-15T16:28:55.765Z,13.60
2023-04-15T16:31:24.786Z,13.57
2023-04-15T16:33:53.907Z,13.55
2023-04-15T16:36:22.691Z,13.55
2023-04-15T16:38:51.578Z,13.49
2023-04-15T16:41:21.237Z,13.41
2023-04-15T16:43:50.380Z,13.33
2023-04-15T16:46:19.216Z,13.26
2023-04-15T16:48:47.834Z,13.17
2023-04-15T16:51:16.522Z,13.08
2023-04-15T16:53:45.906Z,13.04
2023-04-15T16:56:14.773Z,12.97
2023-04-15T16:58:43.796Z,12.92
2023-04-15T17:01:12.551Z,12.87
2023-04-15T17:03:41.384Z,12.80
2023-04-15T17:06:10.584Z,12.70
2023-04-15T17:08:40.441Z,12.65
2023-04-15T17:11:09.054Z,12.59
2023-04-15T17:13:37.958Z,12.53
2023-04-15T17:16:06.843Z,12.47
2023-04-15T17:18:35.620Z,12.40
2023-04-15T17:21:05.969Z,12.33
2023-04-15T17:23:34.876Z,12.28
2023-04-15T17:26:03.797Z,12.26
2023-04-15T17:28:32.859Z,12.22
2023-04-15T17:31:02.160Z,12.18
2023-04-15T17:34:00.153Z,12.13
2023-04-15T17:36:20.611Z,12.06
2023-04-15T17:38:49.826Z,12.00
2023-04-15T17:41:18.285Z,11.95
2023-04-15T17:43:47.079Z,11.89
2023-04-15T17:46:15.955Z,11.83
2023-04-15T17:48:44.456Z,11.75
2023-04-15T17:51:13.716Z,11.71
2023-04-15T17:53:42.386Z,11.67
2023-04-15T17:56:11.328Z,11.63
2023-04-15T17:58:39.844Z,11.60
2023-04-15T18:01:08.692Z,11.61
2023-04-15T18:03:37.751Z,11.60
2023-04-15T18:06:06.744Z,11.59
2023-04-15T18:08:36.513Z,11.58
2023-04-15T18:11:05.617Z,11.58
2023-04-15T18:13:34.710Z,11.58
2023-04-15T18:16:03.718Z,11.57
2023-04-15T18:18:34.086Z,11.56
2023-04-15T18:21:03.765Z,11.54
2023-04-15T18:23:33.090Z,11.51
2023-04-15T18:26:01.837Z,11.46
2023-04-15T18:28:31.753Z,11.38
2023-04-15T18:31:01.815Z,11.34
2023-04-15T18:33:30.548Z,11.31
2023-04-15T18:35:59.475Z,11.31
2023-04-15T18:38:29.130Z,11.35
2023-04-15T18:40:57.617Z,11.38
2023-04-15T18:43:26.430Z,11.41
2023-04-15T18:45:55.270Z,11.43
2023-04-15T18:48:24.163Z,11.44
2023-04-15T18:50:54.759Z,11.43
2023-04-15T18:53:24.018Z,11.44
2023-04-15T18:55:52.794Z,11.44
2023-04-15T18:58:21.835Z,11.45
2023-04-15T19:00:51.002Z,11.43
2023-04-15T19:03:25.012Z,11.39
2023-04-15T19:05:54.015Z,11.37
2023-04-15T19:08:22.457Z,11.37
2023-04-15T19:10:52.122Z,11.35
2023-04-15T19:13:22.834Z,11.37
2023-04-15T19:15:52.131Z,11.40
2023-04-15T19:18:21.498Z,11.41
2023-04-15T19:20:53.111Z,11.45
2023-04-15T19:23:23.111Z,11.46
2023-04-15T19:25:51.732Z,11.47
2023-04-15T19:28:20.502Z,11.44
2023-04-15T19:30:49.955Z,11.36
2023-04-15T19:33:18.950Z,11.32
2023-04-15T19:35:50.340Z,11.28
2023-04-15T19:38:19.279Z,11.25
2023-04-15T19:40:48.422Z,11.23
2023-04-15T19:43:17.334Z,11.19
2023-04-15T19:45:47.197Z,11.17
2023-04-15T19:48:16.522Z,11.17
2023-04-15T19:50:45.576Z,11.16
2023-04-15T19:53:14.781Z,11.18
2023-04-15T19:55:43.714Z,11.18
2023-04-15T19:58:12.343Z,11.16
2023-04-15T20:00:41.631Z,11.12
2023-04-15T20:03:11.311Z,11.11
2023-04-15T20:05:39.905Z,11.10
2023-04-15T20:08:09.232Z,11.09
2023-04-15T20:10:38.121Z,11.08
2023-04-15T20:13:06.767Z,11.04
2023-04-15T20:15:36.037Z,11.01
2023-04-15T20:18:04.636Z,10.98
2023-04-15T20:20:35.044Z,10.95
2023-04-15T20:23:03.972Z,10.93
2023-04-15T20:25:32.694Z,10.96
2023-04-15T20:28:01.373Z,10.97
2023-04-15T20:30:31.102Z,10.99
2023-04-15T20:33:00.882Z,11.03
2023-04-15T20:35:31.177Z,11.00
2023-04-15T20:38:00.433Z,11.01
2023-04-15T20:40:29.739Z,11.00
2023-04-15T20:42:58.492Z,10.99
2023-04-15T20:45:27.125Z,10.97
2023-04-15T20:47:56.529Z,10.96
2023-04-15T20:50:24.939Z,10.94
2023-04-15T20:52:53.671Z,10.89
2023-04-15T20:55:22.503Z,10.82
2023-04-15T20:57:51.108Z,10.77
2023-04-15T21:00:19.989Z,10.74
2023-04-15T21:02:49.033Z,10.73
2023-04-15T21:05:18.081Z,10.69
2023-04-15T21:07:46.930Z,10.64
2023-04-15T21:10:15.753Z,10.60
2023-04-15T21:12:44.808Z,10.57
2023-04-15T21:15:13.814Z,10.53
2023-04-15T21:17:42.727Z,10.54
2023-04-15T21:20:11.945Z,10.59
2023-04-15T21:22:41.100Z,10.60
2023-04-15T21:25:10.065Z,10.58
2023-04-15T21:27:38.729Z,10.51
2023-04-15T21:30:08.291Z,10.45
2023-04-15T21:32:37.019Z,10.43
2023-04-15T21:35:06.477Z,10.40
2023-04-15T21:37:35.281Z,10.38
2023-04-15T21:40:05.163Z,10.38
2023-04-15T21:42:33.674Z,10.38
2023-04-15T21:45:02.681Z,10.41
2023-04-15T21:47:31.938Z,10.42
2023-04-15T21:50:20.761Z,10.39
2023-04-15T21:52:49.677Z,10.37
2023-04-15T21:55:18.417Z,10.29
2023-04-15T21:57:47.516Z,10.24
2023-04-15T22:00:16.725Z,10.18
2023-04-15T22:02:45.413Z,10.13
2023-04-15T22:05:14.363Z,10.08
2023-04-15T22:07:43.610Z,10.10
2023-04-15T22:10:12.159Z,10.12
2023-04-15T22:12:42.490Z,10.14
2023-04-15T22:15:11.510Z,10.14
2023-04-15T22:17:39.998Z,10.09
2023-04-15T22:20:09.571Z,10.01
2023-04-15T22:22:44.304Z,9.96
2023-04-15T22:25:13.817Z,9.91
2023-04-15T22:27:42.955Z,9.91
2023-04-15T22:30:11.940Z,9.90
2023-04-15T22:32:40.886Z,9.86
2023-04-15T22:35:09.838Z,9.83
2023-04-15T22:37:38.292Z,9.81
2023-04-15T22:40:07.687Z,9.80
2023-04-15T22:42:36.603Z,9.79
2023-04-15T22:45:05.755Z,9.75
2023-04-15T22:47:34.578Z,9.72
2023-04-15T22:50:03.868Z,9.69
2023-04-15T22:52:32.443Z,9.69
2023-04-15T22:55:01.521Z,9.69
2023-04-15T22:57:30.352Z,9.69
2023-04-15T22:59:58.842Z,9.70
2023-04-15T23:02:28.101Z,9.71
2023-04-15T23:04:58.056Z,9.74
2023-04-15T23:07:26.531Z,9.76
2023-04-15T23:09:55.402Z,9.74
2023-04-15T23:12:24.297Z,9.73
2023-04-15T23:14:52.717Z,9.70
2023-04-15T23:17:21.926Z,9.65
2023-04-15T23:19:50.758Z,9.58
2023-04-15T23:22:19.300Z,9.52
2023-04-15T23:24:48.328Z,9.47
2023-04-15T23:27:19.248Z,9.36
2023-04-15T23:29:47.693Z,9.27
2023-04-15T23:32:16.662Z,9.21
2023-04-15T23:34:45.588Z,9.15
2023-04-15T23:37:15.853Z,9.09
2023-04-15T23:39:44.961Z,9.11
2023-04-15T23:42:13.873Z,9.17
2023-04-15T23:44:42.298Z,9.24
2023-04-15T23:47:11.347Z,9.33
2023-04-15T23:49:41.218Z,9.41
2023-04-15T23:52:09.702Z,9.43
2023-04-15T23:54:38.307Z,9.38
2023-04-15T23:57:07.428Z,9.36
2023-04-15T23:59:36.484Z,9.36
